sensor_id;sensor_type;location;lat;lon;timestamp;pressure;altitude;pressure_sealevel;temperature;humidity
80116;BME280;69423;47.608;19.366;2023-07-08T00:00:00;99502.19;;;18.08;64.19
80116;BME280;69423;47.608;19.366;2023-07-08T00:00:33;99508.19;;;18.10;64.03
80116;BME280;69423;47.608;19.366;2023-07-08T00:01:10;99508.03;;;18.05;63.45
80116;BME280;69423;47.608;19.366;2023-07-08T00:01:42;99508.44;;;18.02;63.76
80116;BME280;69423;47.608;19.366;2023-07-08T00:02:13;99511.19;;;17.95;64.71
80116;BME280;69423;47.608;19.366;2023-07-08T00:02:44;99506.19;;;17.98;63.91
80116;BME280;69423;47.608;19.366;2023-07-08T00:03:16;99500.81;;;17.98;64.20
80116;BME280;69423;47.608;19.366;2023-07-08T00:03:47;99506.00;;;18.00;65.25
80116;BME280;69423;47.608;19.366;2023-07-08T00:04:18;99502.69;;;17.98;64.79
80116;BME280;69423;47.608;19.366;2023-07-08T00:04:49;99508.91;;;17.98;64.30
80116;BME280;69423;47.608;19.366;2023-07-08T00:05:23;99512.88;;;17.96;65.36
80116;BME280;69423;47.608;19.366;2023-07-08T00:05:56;99512.00;;;17.95;64.86
80116;BME280;69423;47.608;19.366;2023-07-08T00:06:28;99504.97;;;17.94;65.62
80116;BME280;69423;47.608;19.366;2023-07-08T00:06:59;99507.69;;;17.94;65.01
80116;BME280;69423;47.608;19.366;2023-07-08T00:07:30;99513.50;;;17.91;64.95
80116;BME280;69423;47.608;19.366;2023-07-08T00:08:01;99504.78;;;17.89;65.54
80116;BME280;69423;47.608;19.366;2023-07-08T00:08:32;99506.88;;;17.87;65.55
80116;BME280;69423;47.608;19.366;2023-07-08T00:09:09;99508.34;;;17.83;65.79
80116;BME280;69423;47.608;19.366;2023-07-08T00:09:41;99515.19;;;17.79;65.93
80116;BME280;69423;47.608;19.366;2023-07-08T00:10:21;99512.94;;;17.76;65.76
80116;BME280;69423;47.608;19.366;2023-07-08T00:10:53;99510.66;;;17.73;66.17
80116;BME280;69423;47.608;19.366;2023-07-08T00:11:25;99511.09;;;17.70;66.31
80116;BME280;69423;47.608;19.366;2023-07-08T00:11:57;99508.63;;;17.68;67.12
80116;BME280;69423;47.608;19.366;2023-07-08T00:12:28;99509.88;;;17.66;67.32
80116;BME280;69423;47.608;19.366;2023-07-08T00:12:59;99509.50;;;17.55;68.16
80116;BME280;69423;47.608;19.366;2023-07-08T00:13:30;99508.72;;;17.48;68.80
80116;BME280;69423;47.608;19.366;2023-07-08T00:14:01;99512.44;;;17.47;68.96
80116;BME280;69423;47.608;19.366;2023-07-08T00:14:32;99503.56;;;17.47;68.36
80116;BME280;69423;47.608;19.366;2023-07-08T00:15:04;99507.06;;;17.47;68.52
80116;BME280;69423;47.608;19.366;2023-07-08T00:15:37;99511.84;;;17.45;69.42
80116;BME280;69423;47.608;19.366;2023-07-08T00:16:12;99508.75;;;17.42;70.03
80116;BME280;69423;47.608;19.366;2023-07-08T00:16:43;99512.06;;;17.37;69.57
80116;BME280;69423;47.608;19.366;2023-07-08T00:17:15;99510.25;;;17.31;69.45
80116;BME280;69423;47.608;19.366;2023-07-08T00:17:46;99504.22;;;17.29;69.91
80116;BME280;69423;47.608;19.366;2023-07-08T00:18:17;99511.28;;;17.30;70.01
80116;BME280;69423;47.608;19.366;2023-07-08T00:18:49;99504.22;;;17.29;70.78
80116;BME280;69423;47.608;19.366;2023-07-08T00:19:20;99505.47;;;17.33;70.13
80116;BME280;69423;47.608;19.366;2023-07-08T00:19:54;99504.03;;;17.30;70.39
80116;BME280;69423;47.608;19.366;2023-07-08T00:20:38;99506.94;;;17.29;70.16
80116;BME280;69423;47.608;19.366;2023-07-08T00:21:15;99505.09;;;17.29;70.33
80116;BME280;69423;47.608;19.366;2023-07-08T00:21:46;99511.09;;;17.25;69.96
80116;BME280;69423;47.608;19.366;2023-07-08T00:22:17;99503.63;;;17.27;69.69
80116;BME280;69423;47.608;19.366;2023-07-08T00:22:48;99502.59;;;17.28;69.68
80116;BME280;69423;47.608;19.366;2023-07-08T00:23:22;99500.09;;;17.26;70.39
80116;BME280;69423;47.608;19.366;2023-07-08T00:23:53;99500.09;;;17.26;69.93
80116;BME280;69423;47.608;19.366;2023-07-08T00:24:24;99504.66;;;17.26;70.28
80116;BME280;69423;47.608;19.366;2023-07-08T00:24:55;99508.38;;;17.25;70.28
80116;BME280;69423;47.608;19.366;2023-07-08T00:25:27;99501.38;;;17.24;69.94
80116;BME280;69423;47.608;19.366;2023-07-08T00:25:58;99506.13;;;17.22;70.24
80116;BME280;69423;47.608;19.366;2023-07-08T00:26:30;99507.16;;;17.20;71.00
80116;BME280;69423;47.608;19.366;2023-07-08T00:27:01;99502.00;;;17.19;70.81
80116;BME280;69423;47.608;19.366;2023-07-08T00:27:32;99503.03;;;17.18;70.79
80116;BME280;69423;47.608;19.366;2023-07-08T00:28:13;99506.97;;;17.15;70.73
80116;BME280;69423;47.608;19.366;2023-07-08T00:28:45;99505.53;;;17.13;71.12
80116;BME280;69423;47.608;19.366;2023-07-08T00:29:16;99504.69;;;17.12;70.27
80116;BME280;69423;47.608;19.366;2023-07-08T00:29:48;99497.88;;;17.10;71.37
80116;BME280;69423;47.608;19.366;2023-07-08T00:30:52;99502.44;;;17.09;71.04
80116;BME280;69423;47.608;19.366;2023-07-08T00:31:25;99500.19;;;17.06;71.01
80116;BME280;69423;47.608;19.366;2023-07-08T00:31:56;99496.66;;;17.06;71.13
80116;BME280;69423;47.608;19.366;2023-07-08T00:32:27;99496.88;;;17.04;71.44
80116;BME280;69423;47.608;19.366;2023-07-08T00:32:58;99500.59;;;17.03;70.81
80116;BME280;69423;47.608;19.366;2023-07-08T00:33:29;99503.28;;;17.03;70.76
80116;BME280;69423;47.608;19.366;2023-07-08T00:34:00;99506.19;;;17.02;70.86
80116;BME280;69423;47.608;19.366;2023-07-08T00:34:33;99505.97;;;17.03;70.62
80116;BME280;69423;47.608;19.366;2023-07-08T00:35:05;99507.03;;;17.02;70.02
80116;BME280;69423;47.608;19.366;2023-07-08T00:35:44;99497.72;;;16.98;70.21
80116;BME280;69423;47.608;19.366;2023-07-08T00:36:16;99498.75;;;16.97;69.92
80116;BME280;69423;47.608;19.366;2023-07-08T00:36:47;99510.56;;;16.96;70.61
80116;BME280;69423;47.608;19.366;2023-07-08T00:37:18;99498.75;;;16.97;71.07
80116;BME280;69423;47.608;19.366;2023-07-08T00:37:51;99505.19;;;16.96;70.72
80116;BME280;69423;47.608;19.366;2023-07-08T00:38:31;99506.81;;;16.97;70.20
80116;BME280;69423;47.608;19.366;2023-07-08T00:39:12;99508.91;;;16.95;70.68
80116;BME280;69423;47.608;19.366;2023-07-08T00:39:44;99505.38;;;16.94;71.41
80116;BME280;69423;47.608;19.366;2023-07-08T00:40:19;99506.41;;;16.93;70.91
80116;BME280;69423;47.608;19.366;2023-07-08T00:40:52;99497.72;;;16.91;71.26
80116;BME280;69423;47.608;19.366;2023-07-08T00:41:30;99507.66;;;16.91;71.56
80116;BME280;69423;47.608;19.366;2023-07-08T00:42:13;99504.34;;;16.89;71.05
80116;BME280;69423;47.608;19.366;2023-07-08T00:42:45;99500.63;;;16.90;70.77
80116;BME280;69423;47.608;19.366;2023-07-08T00:43:34;99500.84;;;16.88;71.23
80116;BME280;69423;47.608;19.366;2023-07-08T00:44:11;99505.81;;;16.85;71.95
80116;BME280;69423;47.608;19.366;2023-07-08T00:44:43;99498.16;;;16.82;72.04
80116;BME280;69423;47.608;19.366;2023-07-08T00:45:42;99501.88;;;16.81;71.59
80116;BME280;69423;47.608;19.366;2023-07-08T00:47:07;99498.97;;;16.75;72.36
80116;BME280;69423;47.608;19.366;2023-07-08T00:47:38;99497.31;;;16.74;72.77
80116;BME280;69423;47.608;19.366;2023-07-08T00:48:48;99506.00;;;16.70;72.38
80116;BME280;69423;47.608;19.366;2023-07-08T00:50:00;99507.28;;;16.67;72.56
80116;BME280;69423;47.608;19.366;2023-07-08T00:50:34;99505.22;;;16.63;72.82
80116;BME280;69423;47.608;19.366;2023-07-08T00:51:08;99506.22;;;16.62;73.37
80116;BME280;69423;47.608;19.366;2023-07-08T00:51:41;99505.00;;;16.57;73.68
80116;BME280;69423;47.608;19.366;2023-07-08T00:52:27;99504.78;;;16.59;72.89
80116;BME280;69423;47.608;19.366;2023-07-08T00:53:52;99511.44;;;16.56;73.94
80116;BME280;69423;47.608;19.366;2023-07-08T00:54:23;99510.56;;;16.56;74.11
80116;BME280;69423;47.608;19.366;2023-07-08T00:54:57;99501.47;;;16.57;74.33
80116;BME280;69423;47.608;19.366;2023-07-08T00:55:30;99509.75;;;16.55;74.72
80116;BME280;69423;47.608;19.366;2023-07-08T00:56:11;99504.78;;;16.59;74.56
80116;BME280;69423;47.608;19.366;2023-07-08T00:57:02;99505.19;;;16.56;75.02
80116;BME280;69423;47.608;19.366;2023-07-08T00:57:39;99505.63;;;16.53;74.53
80116;BME280;69423;47.608;19.366;2023-07-08T00:58:11;99505.00;;;16.51;74.78
80116;BME280;69423;47.608;19.366;2023-07-08T00:59:36;99498.19;;;16.48;75.81
80116;BME280;69423;47.608;19.366;2023-07-08T01:00:15;99507.06;;;16.49;75.55
80116;BME280;69423;47.608;19.366;2023-07-08T01:00:48;99497.31;;;16.48;75.67
80116;BME280;69423;47.608;19.366;2023-07-08T01:01:20;99503.13;;;16.51;75.79
80116;BME280;69423;47.608;19.366;2023-07-08T01:01:54;99498.38;;;16.53;74.69
80116;BME280;69423;47.608;19.366;2023-07-08T01:02:28;99502.31;;;16.51;75.82
80116;BME280;69423;47.608;19.366;2023-07-08T01:02:59;99502.31;;;16.51;76.58
80116;BME280;69423;47.608;19.366;2023-07-08T01:03:31;99507.69;;;16.51;76.33
80116;BME280;69423;47.608;19.366;2023-07-08T01:04:09;99503.13;;;16.51;75.86
80116;BME280;69423;47.608;19.366;2023-07-08T01:05:05;99499.81;;;16.49;75.51
80116;BME280;69423;47.608;19.366;2023-07-08T01:05:37;99501.69;;;16.49;75.64
80116;BME280;69423;47.608;19.366;2023-07-08T01:06:09;99496.50;;;16.47;75.92
80116;BME280;69423;47.608;19.366;2023-07-08T01:06:48;99507.72;;;16.44;76.52
80116;BME280;69423;47.608;19.366;2023-07-08T01:07:28;99494.00;;;16.46;76.39
80116;BME280;69423;47.608;19.366;2023-07-08T01:08:02;99507.47;;;16.46;75.64
80116;BME280;69423;47.608;19.366;2023-07-08T01:08:34;99501.69;;;16.42;76.62
80116;BME280;69423;47.608;19.366;2023-07-08T01:09:07;99503.53;;;16.42;76.21
80116;BME280;69423;47.608;19.366;2023-07-08T01:09:44;99502.72;;;16.41;75.58
80116;BME280;69423;47.608;19.366;2023-07-08T01:10:22;99498.59;;;16.38;75.48
80116;BME280;69423;47.608;19.366;2023-07-08T01:10:58;99496.09;;;16.37;76.88
80116;BME280;69423;47.608;19.366;2023-07-08T01:11:32;99497.97;;;16.36;76.02
80116;BME280;69423;47.608;19.366;2023-07-08T01:12:10;99501.28;;;16.32;76.16
80116;BME280;69423;47.608;19.366;2023-07-08T01:12:46;99503.16;;;16.31;76.12
80116;BME280;69423;47.608;19.366;2023-07-08T01:13:21;99497.97;;;16.30;77.64
80116;BME280;69423;47.608;19.366;2023-07-08T01:13:53;99496.09;;;16.30;76.54
80116;BME280;69423;47.608;19.366;2023-07-08T01:14:27;99494.03;;;16.32;76.35
80116;BME280;69423;47.608;19.366;2023-07-08T01:15:05;99499.41;;;16.32;76.31
80116;BME280;69423;47.608;19.366;2023-07-08T01:15:41;99488.22;;;16.29;76.88
80116;BME280;69423;47.608;19.366;2023-07-08T01:16:14;99488.22;;;16.29;76.59
80116;BME280;69423;47.608;19.366;2023-07-08T01:16:46;99491.16;;;16.27;76.57
80116;BME280;69423;47.608;19.366;2023-07-08T01:17:17;99496.53;;;16.27;77.17
80116;BME280;69423;47.608;19.366;2023-07-08T01:17:48;99498.59;;;16.25;76.06
80116;BME280;69423;47.608;19.366;2023-07-08T01:18:24;99497.53;;;16.26;77.05
80116;BME280;69423;47.608;19.366;2023-07-08T01:18:56;99493.41;;;16.24;75.96
80116;BME280;69423;47.608;19.366;2023-07-08T01:19:27;99496.94;;;16.24;76.21
80116;BME280;69423;47.608;19.366;2023-07-08T01:20:06;99496.72;;;16.19;76.29
80116;BME280;69423;47.608;19.366;2023-07-08T01:20:39;99499.63;;;16.11;77.26
80116;BME280;69423;47.608;19.366;2023-07-08T01:21:38;99503.56;;;16.15;76.94
80116;BME280;69423;47.608;19.366;2023-07-08T01:22:09;99503.94;;;16.18;77.49
80116;BME280;69423;47.608;19.366;2023-07-08T01:22:42;99494.44;;;16.16;76.94
80116;BME280;69423;47.608;19.366;2023-07-08T01:23:14;99496.94;;;16.17;76.40
80116;BME280;69423;47.608;19.366;2023-07-08T01:23:45;99495.69;;;16.20;76.23
80116;BME280;69423;47.608;19.366;2023-07-08T01:24:16;99498.38;;;16.20;76.95
80116;BME280;69423;47.608;19.366;2023-07-08T01:24:47;99491.13;;;16.21;76.40
80116;BME280;69423;47.608;19.366;2023-07-08T01:25:18;99490.31;;;16.20;76.67
80116;BME280;69423;47.608;19.366;2023-07-08T01:25:49;99501.25;;;16.18;76.42
80116;BME280;69423;47.608;19.366;2023-07-08T01:26:26;99503.13;;;16.18;76.52
80116;BME280;69423;47.608;19.366;2023-07-08T01:26:58;99497.13;;;16.16;76.22
80116;BME280;69423;47.608;19.366;2023-07-08T01:27:36;99501.50;;;16.17;76.48
80116;BME280;69423;47.608;19.366;2023-07-08T01:28:09;99502.31;;;16.11;76.44
80116;BME280;69423;47.608;19.366;2023-07-08T01:28:40;99498.56;;;16.12;76.22
80116;BME280;69423;47.608;19.366;2023-07-08T01:29:12;99506.25;;;16.15;76.40
80116;BME280;69423;47.608;19.366;2023-07-08T01:29:44;99504.38;;;16.15;77.34
80116;BME280;69423;47.608;19.366;2023-07-08T01:30:16;99500.88;;;16.15;77.01
80116;BME280;69423;47.608;19.366;2023-07-08T01:30:49;99499.00;;;16.09;77.29
80116;BME280;69423;47.608;19.366;2023-07-08T01:31:21;99495.06;;;16.05;77.64
80116;BME280;69423;47.608;19.366;2023-07-08T01:31:58;99503.13;;;16.05;76.79
80116;BME280;69423;47.608;19.366;2023-07-08T01:32:31;99499.38;;;16.06;77.20
80116;BME280;69423;47.608;19.366;2023-07-08T01:33:07;99503.53;;;16.02;77.01
80116;BME280;69423;47.608;19.366;2023-07-08T01:33:43;99490.31;;;16.00;77.12
80116;BME280;69423;47.608;19.366;2023-07-08T01:34:18;99499.38;;;15.99;76.38
80116;BME280;69423;47.608;19.366;2023-07-08T01:34:51;99496.69;;;15.99;76.14
80116;BME280;69423;47.608;19.366;2023-07-08T01:35:34;99500.63;;;15.96;76.55
80116;BME280;69423;47.608;19.366;2023-07-08T01:36:05;99497.75;;;15.98;75.48
80116;BME280;69423;47.608;19.366;2023-07-08T01:36:43;99500.22;;;15.99;77.11
80116;BME280;69423;47.608;19.366;2023-07-08T01:37:15;99492.13;;;15.99;76.92
80116;BME280;69423;47.608;19.366;2023-07-08T01:37:51;99497.94;;;15.96;76.00
80116;BME280;69423;47.608;19.366;2023-07-08T01:38:25;99496.91;;;15.97;77.14
80116;BME280;69423;47.608;19.366;2023-07-08T01:38:57;99489.44;;;15.99;76.65
80116;BME280;69423;47.608;19.366;2023-07-08T01:39:30;99491.50;;;15.97;77.45
80116;BME280;69423;47.608;19.366;2023-07-08T01:40:25;99493.59;;;15.95;77.89
80116;BME280;69423;47.608;19.366;2023-07-08T01:40:57;99497.94;;;15.96;77.08
80116;BME280;69423;47.608;19.366;2023-07-08T01:41:28;99501.44;;;15.97;77.81
80116;BME280;69423;47.608;19.366;2023-07-08T01:41:59;99497.75;;;15.98;77.25
80116;BME280;69423;47.608;19.366;2023-07-08T01:42:30;99491.50;;;15.97;77.85
80116;BME280;69423;47.608;19.366;2023-07-08T01:43:03;99498.97;;;15.95;76.75
80116;BME280;69423;47.608;19.366;2023-07-08T01:43:34;99489.06;;;15.96;77.11
80116;BME280;69423;47.608;19.366;2023-07-08T01:44:19;99495.25;;;15.96;77.00
80116;BME280;69423;47.608;19.366;2023-07-08T01:44:51;99488.00;;;15.97;76.76
80116;BME280;69423;47.608;19.366;2023-07-08T01:45:25;99501.03;;;15.93;77.41
80116;BME280;69423;47.608;19.366;2023-07-08T01:46:00;99490.50;;;15.92;77.56
80116;BME280;69423;47.608;19.366;2023-07-08T01:46:32;99492.34;;;15.91;77.87
80116;BME280;69423;47.608;19.366;2023-07-08T01:47:11;99487.38;;;15.88;77.05
80116;BME280;69423;47.608;19.366;2023-07-08T01:47:50;99492.94;;;15.87;77.82
80116;BME280;69423;47.608;19.366;2023-07-08T01:48:23;99487.56;;;15.87;78.03
80116;BME280;69423;47.608;19.366;2023-07-08T01:48:57;99488.41;;;15.87;77.99
80116;BME280;69423;47.608;19.366;2023-07-08T01:49:31;99494.38;;;15.83;77.58
80116;BME280;69423;47.608;19.366;2023-07-08T01:50:04;99492.75;;;15.82;78.20
80116;BME280;69423;47.608;19.366;2023-07-08T01:50:39;99490.06;;;15.82;78.22
80116;BME280;69423;47.608;19.366;2023-07-08T01:51:11;99490.06;;;15.82;77.30
80116;BME280;69423;47.608;19.366;2023-07-08T01:51:42;99490.06;;;15.82;77.04
80116;BME280;69423;47.608;19.366;2023-07-08T01:52:15;99491.06;;;15.81;77.30
80116;BME280;69423;47.608;19.366;2023-07-08T01:52:50;99487.56;;;15.80;78.01
80116;BME280;69423;47.608;19.366;2023-07-08T01:53:29;99489.00;;;15.76;78.50
80116;BME280;69423;47.608;19.366;2023-07-08T01:54:00;99487.56;;;15.73;78.96
80116;BME280;69423;47.608;19.366;2023-07-08T01:54:31;99489.81;;;15.76;78.03
80116;BME280;69423;47.608;19.366;2023-07-08T01:55:02;99482.00;;;15.75;78.03
80116;BME280;69423;47.608;19.366;2023-07-08T01:55:34;99493.34;;;15.77;78.03
80116;BME280;69423;47.608;19.366;2023-07-08T01:56:05;99480.13;;;15.75;77.97
80116;BME280;69423;47.608;19.366;2023-07-08T01:56:37;99488.19;;;15.75;78.49
80116;BME280;69423;47.608;19.366;2023-07-08T01:57:08;99486.31;;;15.76;78.71
80116;BME280;69423;47.608;19.366;2023-07-08T01:57:39;99483.19;;;15.72;79.01
80116;BME280;69423;47.608;19.366;2023-07-08T01:58:10;99484.22;;;15.71;78.29
80116;BME280;69423;47.608;19.366;2023-07-08T01:58:41;99478.84;;;15.71;78.68
80116;BME280;69423;47.608;19.366;2023-07-08T01:59:12;99484.41;;;15.70;78.01
80116;BME280;69423;47.608;19.366;2023-07-08T01:59:43;99483.16;;;15.66;77.94
80116;BME280;69423;47.608;19.366;2023-07-08T02:00:14;99483.56;;;15.63;78.62
80116;BME280;69423;47.608;19.366;2023-07-08T02:00:45;99482.53;;;15.64;78.58
80116;BME280;69423;47.608;19.366;2023-07-08T02:01:19;99480.66;;;15.64;79.33
80116;BME280;69423;47.608;19.366;2023-07-08T02:01:51;99475.28;;;15.64;78.47
80116;BME280;69423;47.608;19.366;2023-07-08T02:02:25;99479.84;;;15.64;78.91
80116;BME280;69423;47.608;19.366;2023-07-08T02:02:56;99476.34;;;15.63;78.83
80116;BME280;69423;47.608;19.366;2023-07-08T02:03:28;99486.25;;;15.63;79.03
80116;BME280;69423;47.608;19.366;2023-07-08T02:03:59;99481.91;;;15.62;78.53
80116;BME280;69423;47.608;19.366;2023-07-08T02:04:30;99478.19;;;15.63;78.41
80116;BME280;69423;47.608;19.366;2023-07-08T02:05:01;99480.88;;;15.63;79.11
80116;BME280;69423;47.608;19.366;2023-07-08T02:05:32;99482.94;;;15.61;78.41
80116;BME280;69423;47.608;19.366;2023-07-08T02:06:06;99488.72;;;15.57;79.21
80116;BME280;69423;47.608;19.366;2023-07-08T02:06:37;99482.09;;;15.53;79.03
80116;BME280;69423;47.608;19.366;2023-07-08T02:07:08;99480.63;;;15.51;79.61
80116;BME280;69423;47.608;19.366;2023-07-08T02:07:39;99483.13;;;15.52;79.91
80116;BME280;69423;47.608;19.366;2023-07-08T02:08:10;99482.91;;;15.54;79.45
80116;BME280;69423;47.608;19.366;2023-07-08T02:08:41;99483.31;;;15.51;78.93
80116;BME280;69423;47.608;19.366;2023-07-08T02:09:12;99476.09;;;15.51;78.78
80116;BME280;69423;47.608;19.366;2023-07-08T02:09:43;99479.81;;;15.50;78.47
80116;BME280;69423;47.608;19.366;2023-07-08T02:10:14;99479.81;;;15.50;79.26
80116;BME280;69423;47.608;19.366;2023-07-08T02:10:50;99478.16;;;15.49;78.67
80116;BME280;69423;47.608;19.366;2023-07-08T02:11:21;99478.16;;;15.49;79.55
80116;BME280;69423;47.608;19.366;2023-07-08T02:11:52;99482.50;;;15.50;79.46
80116;BME280;69423;47.608;19.366;2023-07-08T02:12:24;99487.84;;;15.44;79.48
80116;BME280;69423;47.608;19.366;2023-07-08T02:12:55;99490.50;;;15.37;79.62
80116;BME280;69423;47.608;19.366;2023-07-08T02:13:26;99481.44;;;15.38;79.36
80116;BME280;69423;47.608;19.366;2023-07-08T02:13:57;99482.84;;;15.34;80.02
80116;BME280;69423;47.608;19.366;2023-07-08T02:14:28;99488.22;;;15.34;79.51
80116;BME280;69423;47.608;19.366;2023-07-08T02:15:00;99492.56;;;15.35;80.21
80116;BME280;69423;47.608;19.366;2023-07-08T02:15:32;99491.53;;;15.36;80.06
80116;BME280;69423;47.608;19.366;2023-07-08T02:16:03;99493.00;;;15.38;80.05
80116;BME280;69423;47.608;19.366;2023-07-08T02:16:34;99488.84;;;15.36;80.18
80116;BME280;69423;47.608;19.366;2023-07-08T02:17:05;99479.75;;;15.37;79.74
80116;BME280;69423;47.608;19.366;2023-07-08T02:17:36;99484.31;;;15.36;78.85
80116;BME280;69423;47.608;19.366;2023-07-08T02:18:07;99485.97;;;15.37;80.09
80116;BME280;69423;47.608;19.366;2023-07-08T02:18:38;99479.75;;;15.37;79.96
80116;BME280;69423;47.608;19.366;2023-07-08T02:19:12;99485.97;;;15.37;79.82
80116;BME280;69423;47.608;19.366;2023-07-08T02:19:43;99483.50;;;15.36;80.28
80116;BME280;69423;47.608;19.366;2023-07-08T02:20:14;99491.75;;;15.34;80.53
80116;BME280;69423;47.608;19.366;2023-07-08T02:20:47;99483.88;;;15.33;79.89
80116;BME280;69423;47.608;19.366;2023-07-08T02:21:18;99484.66;;;15.27;79.94
80116;BME280;69423;47.608;19.366;2023-07-08T02:21:49;99482.63;;;15.29;79.75
80116;BME280;69423;47.608;19.366;2023-07-08T02:22:20;99483.25;;;15.31;80.36
80116;BME280;69423;47.608;19.366;2023-07-08T02:22:51;99483.25;;;15.31;80.24
80116;BME280;69423;47.608;19.366;2023-07-08T02:23:22;99485.94;;;15.31;80.30
80116;BME280;69423;47.608;19.366;2023-07-08T02:23:54;99483.47;;;15.29;80.43
80116;BME280;69423;47.608;19.366;2023-07-08T02:24:25;99484.28;;;15.30;79.71
80116;BME280;69423;47.608;19.366;2023-07-08T02:24:56;99478.47;;;15.26;79.93
80116;BME280;69423;47.608;19.366;2023-07-08T02:25:27;99485.09;;;15.24;80.52
80116;BME280;69423;47.608;19.366;2023-07-08T02:25:59;99481.78;;;15.22;80.84
80116;BME280;69423;47.608;19.366;2023-07-08T02:26:30;99479.72;;;15.24;80.24
80116;BME280;69423;47.608;19.366;2023-07-08T02:27:03;99483.41;;;15.23;80.63
80116;BME280;69423;47.608;19.366;2023-07-08T02:27:34;99483.63;;;15.21;80.25
80116;BME280;69423;47.608;19.366;2023-07-08T02:28:05;99480.09;;;15.21;80.53
80116;BME280;69423;47.608;19.366;2023-07-08T02:28:36;99481.13;;;15.20;80.81
80116;BME280;69423;47.608;19.366;2023-07-08T02:29:07;99483.00;;;15.19;79.78
80116;BME280;69423;47.608;19.366;2023-07-08T02:29:38;99483.81;;;15.20;80.74
80116;BME280;69423;47.608;19.366;2023-07-08T02:30:10;99476.78;;;15.18;79.76
80116;BME280;69423;47.608;19.366;2023-07-08T02:30:41;99487.94;;;15.15;79.43
80116;BME280;69423;47.608;19.366;2023-07-08T02:31:12;99483.38;;;15.09;80.25
80116;BME280;69423;47.608;19.366;2023-07-08T02:31:43;99483.38;;;15.09;80.12
80116;BME280;69423;47.608;19.366;2023-07-08T02:32:14;99478.63;;;15.11;79.16
80116;BME280;69423;47.608;19.366;2023-07-08T02:32:45;99487.69;;;15.10;79.76
80116;BME280;69423;47.608;19.366;2023-07-08T02:33:27;99485.88;;;15.11;80.84
80116;BME280;69423;47.608;19.366;2023-07-08T02:34:03;99480.50;;;15.11;81.12
80116;BME280;69423;47.608;19.366;2023-07-08T02:34:35;99484.00;;;15.11;80.97
80116;BME280;69423;47.608;19.366;2023-07-08T02:35:08;99484.81;;;15.12;80.33
80116;BME280;69423;47.608;19.366;2023-07-08T02:35:39;99477.59;;;15.12;81.04
80116;BME280;69423;47.608;19.366;2023-07-08T02:36:10;99485.63;;;15.12;80.15
80116;BME280;69423;47.608;19.366;2023-07-08T02:36:41;99480.25;;;15.12;80.39
80116;BME280;69423;47.608;19.366;2023-07-08T02:37:12;99483.81;;;15.13;80.15
80116;BME280;69423;47.608;19.366;2023-07-08T02:37:43;99484.81;;;15.12;80.90
80116;BME280;69423;47.608;19.366;2023-07-08T02:38:14;99477.81;;;15.11;80.80
80116;BME280;69423;47.608;19.366;2023-07-08T02:38:45;99489.56;;;15.10;80.33
80116;BME280;69423;47.608;19.366;2023-07-08T02:39:16;99479.22;;;15.07;81.20
80116;BME280;69423;47.608;19.366;2023-07-08T02:39:47;99489.16;;;15.06;80.83
80116;BME280;69423;47.608;19.366;2023-07-08T02:40:19;99488.09;;;15.07;80.66
80116;BME280;69423;47.608;19.366;2023-07-08T02:40:50;99487.09;;;15.08;81.42
80116;BME280;69423;47.608;19.366;2023-07-08T02:41:21;99482.72;;;15.07;81.11
80116;BME280;69423;47.608;19.366;2023-07-08T02:41:52;99493.28;;;15.09;80.94
80116;BME280;69423;47.608;19.366;2023-07-08T02:42:24;99489.16;;;15.06;80.78
80116;BME280;69423;47.608;19.366;2023-07-08T02:42:55;99482.94;;;15.06;81.72
80116;BME280;69423;47.608;19.366;2023-07-08T02:43:26;99495.34;;;15.07;81.69
80116;BME280;69423;47.608;19.366;2023-07-08T02:43:57;99487.66;;;15.04;81.99
80116;BME280;69423;47.608;19.366;2023-07-08T02:44:28;99486.66;;;15.05;81.44
80116;BME280;69423;47.608;19.366;2023-07-08T02:44:59;99489.53;;;15.03;81.05
80116;BME280;69423;47.608;19.366;2023-07-08T02:45:30;99486.84;;;15.03;81.60
80116;BME280;69423;47.608;19.366;2023-07-08T02:46:01;99490.56;;;15.02;81.16
80116;BME280;69423;47.608;19.366;2023-07-08T02:46:32;99492.22;;;15.03;81.04
80116;BME280;69423;47.608;19.366;2023-07-08T02:47:03;99491.19;;;15.04;81.37
80116;BME280;69423;47.608;19.366;2023-07-08T02:47:34;99499.63;;;15.01;81.81
80116;BME280;69423;47.608;19.366;2023-07-08T02:48:05;99494.28;;;15.01;81.30
80116;BME280;69423;47.608;19.366;2023-07-08T02:48:36;99497.78;;;15.02;81.51
80116;BME280;69423;47.608;19.366;2023-07-08T02:49:07;99500.69;;;15.00;81.71
80116;BME280;69423;47.608;19.366;2023-07-08T02:49:38;99483.53;;;15.01;81.11
80116;BME280;69423;47.608;19.366;2023-07-08T02:50:10;99495.09;;;15.02;81.02
80116;BME280;69423;47.608;19.366;2023-07-08T02:50:42;99488.72;;;15.03;81.40
80116;BME280;69423;47.608;19.366;2023-07-08T02:51:13;99486.22;;;15.01;81.52
80116;BME280;69423;47.608;19.366;2023-07-08T02:51:44;99495.09;;;15.02;81.59
80116;BME280;69423;47.608;19.366;2023-07-08T02:52:15;99488.72;;;15.03;81.47
80116;BME280;69423;47.608;19.366;2023-07-08T02:52:46;99498.63;;;15.02;82.01
80116;BME280;69423;47.608;19.366;2023-07-08T02:53:17;99494.47;;;15.00;81.47
80116;BME280;69423;47.608;19.366;2023-07-08T02:53:49;99492.00;;;14.98;81.51
80116;BME280;69423;47.608;19.366;2023-07-08T02:54:20;99492.63;;;15.00;81.42
80116;BME280;69423;47.608;19.366;2023-07-08T02:54:51;99494.28;;;15.01;82.21
80116;BME280;69423;47.608;19.366;2023-07-08T02:55:22;99491.59;;;15.01;82.14
80116;BME280;69423;47.608;19.366;2023-07-08T02:55:53;99494.47;;;15.00;80.89
80116;BME280;69423;47.608;19.366;2023-07-08T02:56:25;99494.69;;;14.98;80.58
80116;BME280;69423;47.608;19.366;2023-07-08T02:56:58;99491.16;;;14.97;81.04
80116;BME280;69423;47.608;19.366;2023-07-08T02:57:29;99492.63;;;15.00;80.92